createdAt,value
2018-06-03T00:00:54.589Z,957.27
2018-06-03T00:01:54.583Z,957.23
2018-06-03T00:02:54.575Z,957.22
2018-06-03T00:03:54.569Z,957.21
2018-06-03T00:04:54.564Z,957.21
2018-06-03T00:05:54.575Z,957.24
2018-06-03T00:06:54.550Z,957.22
2018-06-03T00:07:54.547Z,957.25
2018-06-03T00:08:54.540Z,957.26
2018-06-03T00:09:54.534Z,957.3
2018-06-03T00:10:54.526Z,957.28
2018-06-03T00:11:54.520Z,957.28
2018-06-03T00:12:54.520Z,957.26
2018-06-03T00:13:54.510Z,957.27
2018-06-03T00:14:54.502Z,957.23
2018-06-03T00:15:54.496Z,957.25
2018-06-03T00:16:54.489Z,957.25
2018-06-03T00:17:54.483Z,957.33
2018-06-03T00:18:54.476Z,957.3
2018-06-03T00:19:54.470Z,957.29
2018-06-03T00:20:54.466Z,957.29
2018-06-03T00:21:54.458Z,957.3
2018-06-03T00:22:54.453Z,957.3
2018-06-03T00:23:54.445Z,957.32
2018-06-03T00:24:54.440Z,957.32
2018-06-03T00:25:54.432Z,957.36
2018-06-03T00:26:54.433Z,957.32
2018-06-03T00:27:54.422Z,957.36
2018-06-03T00:28:54.414Z,957.35
2018-06-03T00:29:54.406Z,957.34
2018-06-03T00:30:54.401Z,957.32
2018-06-03T00:31:54.395Z,957.35
2018-06-03T00:32:54.388Z,957.34
2018-06-03T00:33:54.382Z,957.29
2018-06-03T00:34:54.375Z,957.27
2018-06-03T00:35:54.370Z,957.23
2018-06-03T00:36:54.362Z,957.24
2018-06-03T00:37:54.356Z,957.26
2018-06-03T00:38:54.350Z,957.26
2018-06-03T00:39:54.343Z,957.28
2018-06-03T00:40:54.337Z,957.24
2018-06-03T00:41:54.329Z,957.24
2018-06-03T00:42:54.328Z,957.28
2018-06-03T00:43:54.316Z,957.26
2018-06-03T00:44:54.328Z,957.28
2018-06-03T00:45:54.325Z,957.27
2018-06-03T00:46:54.300Z,957.26
2018-06-03T00:47:54.291Z,957.23
2018-06-03T00:48:54.286Z,957.25
2018-06-03T00:49:54.278Z,957.25
2018-06-03T00:50:54.271Z,957.27
2018-06-03T00:51:54.265Z,957.25
2018-06-03T00:52:54.258Z,957.27
2018-06-03T00:53:54.251Z,957.31
2018-06-03T00:54:54.244Z,957.28
2018-06-03T00:55:54.238Z,957.31
2018-06-03T00:56:54.232Z,957.29
2018-06-03T00:57:54.227Z,957.27
2018-06-03T00:58:54.219Z,957.27
2018-06-03T00:59:54.214Z,957.29
2018-06-03T01:00:54.207Z,957.25
2018-06-03T01:01:54.199Z,957.24
2018-06-03T01:02:54.193Z,957.2
2018-06-03T01:03:54.187Z,957.22
2018-06-03T01:04:54.182Z,957.21
2018-06-03T01:05:54.174Z,957.16
2018-06-03T01:06:54.168Z,957.17
2018-06-03T01:07:54.161Z,957.18
2018-06-03T01:08:54.153Z,957.18
2018-06-03T01:09:54.147Z,957.19
2018-06-03T01:10:54.140Z,957.17
2018-06-03T01:11:54.133Z,957.17
2018-06-03T01:12:54.127Z,957.16
2018-06-03T01:13:54.120Z,957.16
2018-06-03T01:14:54.114Z,957.16
2018-06-03T01:15:54.107Z,957.12
2018-06-03T01:16:54.100Z,957.1
2018-06-03T01:17:54.096Z,957.13
2018-06-03T01:18:54.090Z,957.13
2018-06-03T01:19:54.083Z,957.07
2018-06-03T01:20:54.075Z,957.09
2018-06-03T01:21:54.069Z,957.08
2018-06-03T01:22:54.063Z,957.07
2018-06-03T01:23:54.055Z,957.06
2018-06-03T01:24:54.049Z,957.08
2018-06-03T01:25:54.045Z,957.07
2018-06-03T01:26:54.036Z,957.07
2018-06-03T01:27:54.035Z,957.04
2018-06-03T01:28:54.023Z,957.05
2018-06-03T01:29:54.017Z,957.03
2018-06-03T01:30:54.012Z,957.02
2018-06-03T01:31:54.003Z,957.03
2018-06-03T01:32:53.998Z,957.01
2018-06-03T01:33:53.992Z,956.98
2018-06-03T01:34:53.985Z,957
2018-06-03T01:35:53.982Z,957.01
2018-06-03T01:36:53.974Z,956.99
2018-06-03T01:37:53.965Z,956.99
2018-06-03T01:38:53.959Z,956.99
2018-06-03T01:39:53.953Z,957.01
2018-06-03T01:40:53.947Z,956.96
2018-06-03T01:41:53.939Z,956.96
2018-06-03T01:42:53.932Z,956.94
2018-06-03T01:43:53.927Z,956.91
2018-06-03T01:44:53.920Z,956.92
2018-06-03T01:45:53.913Z,956.9
2018-06-03T01:46:53.910Z,956.86
2018-06-03T01:47:53.901Z,956.89
2018-06-03T01:48:53.895Z,956.87
2018-06-03T01:49:53.889Z,956.88
2018-06-03T01:50:53.883Z,956.85
2018-06-03T01:51:53.876Z,956.86
2018-06-03T01:52:53.869Z,956.81
2018-06-03T01:53:53.863Z,956.83
2018-06-03T01:54:53.856Z,956.83
2018-06-03T01:55:53.851Z,956.82
2018-06-03T01:56:53.844Z,956.81
2018-06-03T01:57:53.837Z,956.84
2018-06-03T01:58:53.832Z,956.84
2018-06-03T01:59:53.825Z,956.87
2018-06-03T02:00:53.819Z,956.83
2018-06-03T02:01:53.812Z,956.89
2018-06-03T02:02:53.806Z,956.83
2018-06-03T02:03:53.799Z,956.82
2018-06-03T02:04:53.793Z,956.82
2018-06-03T02:05:53.788Z,956.82
2018-06-03T02:06:53.780Z,956.82
2018-06-03T02:07:53.774Z,956.79
2018-06-03T02:08:53.768Z,956.78
2018-06-03T02:09:53.763Z,956.77
2018-06-03T02:10:53.756Z,956.75
2018-06-03T02:11:53.749Z,956.77
2018-06-03T02:12:53.963Z,956.76
2018-06-03T02:13:53.737Z,956.76
2018-06-03T02:14:53.731Z,956.79
2018-06-03T02:15:53.724Z,956.82
2018-06-03T02:16:53.717Z,956.78
2018-06-03T02:17:53.711Z,956.81
2018-06-03T02:18:53.704Z,956.84
2018-06-03T02:19:53.698Z,956.84
2018-06-03T02:20:53.695Z,956.87
2018-06-03T02:21:53.686Z,956.86
2018-06-03T02:22:53.679Z,956.85
2018-06-03T02:23:53.672Z,956.85
2018-06-03T02:24:53.666Z,956.91
2018-06-03T02:25:53.660Z,956.86
2018-06-03T02:26:53.657Z,956.9
2018-06-03T02:27:53.646Z,956.91
2018-06-03T02:28:53.640Z,956.89
2018-06-03T02:29:53.634Z,956.92
2018-06-03T02:30:53.630Z,956.87
2018-06-03T02:31:53.621Z,956.89
2018-06-03T02:32:53.616Z,956.88
2018-06-03T02:33:53.608Z,956.9
2018-06-03T02:34:53.602Z,956.93
2018-06-03T02:35:53.597Z,956.92
2018-06-03T02:36:53.589Z,956.94
2018-06-03T02:37:53.632Z,956.96
2018-06-03T02:38:53.576Z,956.9
2018-06-03T02:39:53.570Z,956.9
2018-06-03T02:40:53.562Z,956.91
2018-06-03T02:41:53.555Z,956.92
2018-06-03T02:42:53.552Z,956.91
2018-06-03T02:43:53.543Z,956.94
2018-06-03T02:44:53.540Z,956.93
2018-06-03T02:45:53.528Z,956.93
2018-06-03T02:46:53.523Z,956.93
2018-06-03T02:47:53.515Z,956.93
2018-06-03T02:48:53.509Z,956.89
2018-06-03T02:49:53.518Z,956.96
2018-06-03T02:50:53.495Z,956.91
2018-06-03T02:51:53.492Z,956.91
2018-06-03T02:52:53.480Z,956.94
2018-06-03T02:53:53.473Z,956.97
2018-06-03T02:54:53.472Z,956.96
2018-06-03T02:55:53.479Z,956.97
2018-06-03T02:56:53.455Z,956.95
2018-06-03T02:57:53.449Z,956.95
2018-06-03T02:58:53.440Z,956.93
2018-06-03T02:59:53.432Z,956.96
2018-06-03T03:00:53.426Z,956.93
2018-06-03T03:01:53.419Z,956.93
2018-06-03T03:02:53.412Z,956.93
2018-06-03T03:03:53.409Z,956.9
2018-06-03T03:04:53.397Z,956.94
2018-06-03T03:05:53.391Z,956.89
2018-06-03T03:06:53.397Z,956.88
2018-06-03T03:07:53.376Z,956.89
2018-06-03T03:08:53.369Z,956.91
2018-06-03T03:09:53.364Z,956.91
2018-06-03T03:10:53.356Z,956.88
2018-06-03T03:11:53.350Z,956.91
2018-06-03T03:12:53.344Z,956.94
2018-06-03T03:13:53.336Z,956.94
2018-06-03T03:14:53.330Z,956.93
2018-06-03T03:15:53.321Z,956.94
2018-06-03T03:16:53.314Z,956.98
2018-06-03T03:17:53.313Z,956.93
2018-06-03T03:18:53.308Z,956.92
2018-06-03T03:19:53.292Z,956.94
2018-06-03T03:20:53.286Z,956.94
2018-06-03T03:21:53.280Z,956.95
2018-06-03T03:22:53.272Z,956.94
2018-06-03T03:23:53.265Z,956.98
2018-06-03T03:24:53.256Z,956.95
2018-06-03T03:25:53.251Z,956.95
2018-06-03T03:26:53.246Z,957.01
2018-06-03T03:27:53.254Z,957.01
2018-06-03T03:28:53.229Z,957.01
2018-06-03T03:29:53.222Z,957.05
2018-06-03T03:30:53.216Z,957.05
2018-06-03T03:31:53.209Z,957.04
2018-06-03T03:32:53.205Z,957.06
2018-06-03T03:33:53.195Z,957.05
2018-06-03T03:34:53.191Z,957.07
2018-06-03T03:35:53.179Z,957.09
2018-06-03T03:36:53.173Z,957.08
2018-06-03T03:37:53.166Z,957.08
2018-06-03T03:38:53.158Z,957.07
2018-06-03T03:39:53.154Z,957.07
2018-06-03T03:40:53.146Z,957.06
2018-06-03T03:41:53.140Z,957.07
2018-06-03T03:42:53.131Z,957.08
2018-06-03T03:43:53.129Z,957.05
2018-06-03T03:44:53.118Z,957.06
2018-06-03T03:45:53.111Z,957.1
2018-06-03T03:46:53.104Z,957.1
2018-06-03T03:47:53.096Z,957.12
2018-06-03T03:48:53.090Z,957.09
2018-06-03T03:49:53.084Z,957.08
2018-06-03T03:50:53.076Z,957.08
2018-06-03T03:51:53.068Z,957.07
2018-06-03T03:52:53.063Z,957.05
2018-06-03T03:53:53.056Z,957.04
2018-06-03T03:54:53.049Z,957.04
2018-06-03T03:55:53.042Z,957.06
2018-06-03T03:56:53.033Z,957.07
2018-06-03T03:57:53.027Z,957.08
2018-06-03T03:58:53.020Z,957.06
2018-06-03T03:59:53.016Z,957.09
2018-06-03T04:00:53.008Z,957.07
2018-06-03T04:01:52.999Z,957.07
2018-06-03T04:02:52.993Z,957.09
2018-06-03T04:03:52.987Z,957.11
2018-06-03T04:04:52.979Z,957.12
2018-06-03T04:05:52.972Z,957.15
2018-06-03T04:06:52.965Z,957.14
2018-06-03T04:07:52.959Z,957.14
2018-06-03T04:08:52.953Z,957.11
2018-06-03T04:09:52.945Z,957.09
2018-06-03T04:10:52.939Z,957.08
2018-06-03T04:11:52.938Z,957.06
2018-06-03T04:12:52.925Z,957.13
2018-06-03T04:13:52.922Z,957.1
2018-06-03T04:14:52.915Z,957.12
2018-06-03T04:15:52.906Z,957.12
2018-06-03T04:16:52.898Z,957.17
2018-06-03T04:17:52.892Z,957.15
2018-06-03T04:18:52.884Z,957.1
2018-06-03T04:19:52.880Z,957.09
2018-06-03T04:20:52.874Z,957.07
2018-06-03T04:21:52.867Z,957.09
2018-06-03T04:22:52.859Z,957.11
2018-06-03T04:23:52.853Z,957.07
2018-06-03T04:24:52.853Z,957.13
2018-06-03T04:25:52.844Z,957.12
2018-06-03T04:26:52.836Z,957.1
2018-06-03T04:27:52.829Z,957.12
2018-06-03T04:28:52.824Z,957.09
2018-06-03T04:29:52.816Z,957.1
2018-06-03T04:30:52.811Z,957.14
2018-06-03T04:31:52.805Z,957.08
2018-06-03T04:32:52.799Z,957.09
2018-06-03T04:33:52.794Z,957.1
2018-06-03T04:34:52.789Z,957.12
2018-06-03T04:35:52.841Z,957.13
2018-06-03T04:36:52.775Z,957.11
2018-06-03T04:37:52.771Z,957.08
2018-06-03T04:38:52.764Z,957.08
2018-06-03T04:39:52.762Z,957.1
2018-06-03T04:40:52.756Z,957.1
2018-06-03T04:41:52.751Z,957.07
2018-06-03T04:42:52.741Z,957.08
2018-06-03T04:43:52.736Z,957.06
2018-06-03T04:44:52.730Z,957.1
2018-06-03T04:45:52.729Z,957.08
2018-06-03T04:46:52.720Z,957.13
2018-06-03T04:47:52.733Z,957.13
2018-06-03T04:48:52.709Z,957.18
2018-06-03T04:49:52.705Z,957.13
2018-06-03T04:50:52.699Z,957.17
2018-06-03T04:51:52.695Z,957.21
2018-06-03T04:52:52.697Z,957.18
2018-06-03T04:53:52.685Z,957.25
2018-06-03T04:54:52.686Z,957.24
2018-06-03T04:55:52.681Z,957.25
2018-06-03T04:56:52.682Z,957.27
2018-06-03T04:57:52.667Z,957.26
2018-06-03T04:58:52.662Z,957.3
2018-06-03T04:59:52.664Z,957.29
2018-06-03T05:00:52.658Z,957.27
2018-06-03T05:01:52.652Z,957.29
2018-06-03T05:02:52.645Z,957.33
2018-06-03T05:03:52.642Z,957.29
2018-06-03T05:04:52.638Z,957.29
2018-06-03T05:05:52.633Z,957.31
2018-06-03T05:06:52.629Z,957.29
2018-06-03T05:07:52.627Z,957.3
2018-06-03T05:08:52.639Z,957.35
2018-06-03T05:09:52.619Z,957.34
2018-06-03T05:10:52.620Z,957.29
2018-06-03T05:11:52.613Z,957.26
2018-06-03T05:12:52.609Z,957.29
2018-06-03T05:13:52.606Z,957.23
2018-06-03T05:14:52.617Z,957.25
2018-06-03T05:15:52.604Z,957.26
2018-06-03T05:16:52.597Z,957.3
2018-06-03T05:17:52.591Z,957.24
2018-06-03T05:18:52.589Z,957.23
2018-06-03T05:19:52.585Z,957.25
2018-06-03T05:20:52.584Z,957.24
2018-06-03T05:21:52.579Z,957.24
2018-06-03T05:22:52.576Z,957.21
2018-06-03T05:23:52.574Z,957.25
2018-06-03T05:24:52.569Z,957.21
2018-06-03T05:25:52.566Z,957.23
2018-06-03T05:26:52.564Z,957.2
2018-06-03T05:27:52.560Z,957.22
2018-06-03T05:28:52.557Z,957.23
2018-06-03T05:29:52.555Z,957.24
2018-06-03T05:30:52.552Z,957.25
2018-06-03T05:31:52.548Z,957.21
2018-06-03T05:32:52.546Z,957.19
2018-06-03T05:33:52.543Z,957.21
2018-06-03T05:34:52.540Z,957.22
2018-06-03T05:35:52.541Z,957.2
2018-06-03T05:36:52.536Z,957.22
2018-06-03T05:37:52.532Z,957.2
2018-06-03T05:38:52.530Z,957.21
2018-06-03T05:39:52.530Z,957.2
2018-06-03T05:40:52.523Z,957.2
2018-06-03T05:41:52.522Z,957.23
2018-06-03T05:42:52.519Z,957.21
2018-06-03T05:43:52.518Z,957.2
2018-06-03T05:44:52.514Z,957.22
2018-06-03T05:45:52.512Z,957.21
2018-06-03T05:46:52.510Z,957.23
2018-06-03T05:47:52.507Z,957.27
2018-06-03T05:48:52.507Z,957.3
2018-06-03T05:49:52.503Z,957.21
2018-06-03T05:50:52.498Z,957.26
2018-06-03T05:51:52.496Z,957.22
2018-06-03T05:52:52.494Z,957.26
2018-06-03T05:53:52.492Z,957.3
2018-06-03T05:54:52.488Z,957.29
2018-06-03T05:55:52.508Z,957.29
2018-06-03T05:56:52.485Z,957.26
2018-06-03T05:57:52.483Z,957.31
2018-06-03T05:58:52.497Z,957.29
2018-06-03T05:59:52.480Z,957.3
2018-06-03T06:00:52.477Z,957.3
2018-06-03T06:01:52.474Z,957.27
2018-06-03T06:02:52.472Z,957.29
2018-06-03T06:03:52.471Z,957.28
2018-06-03T06:04:52.472Z,957.29
2018-06-03T06:05:52.467Z,957.29
2018-06-03T06:06:52.464Z,957.28
2018-06-03T06:07:52.463Z,957.31
2018-06-03T06:08:52.460Z,957.28
2018-06-03T06:09:52.459Z,957.32
2018-06-03T06:10:52.458Z,957.32
2018-06-03T06:11:52.455Z,957.33
2018-06-03T06:12:52.453Z,957.36
2018-06-03T06:13:52.451Z,957.36
2018-06-03T06:14:52.454Z,957.34
2018-06-03T06:15:52.451Z,957.38
2018-06-03T06:16:52.444Z,957.38
2018-06-03T06:17:52.444Z,957.36
2018-06-03T06:18:52.442Z,957.37
2018-06-03T06:19:52.439Z,957.33
2018-06-03T06:20:52.440Z,957.33
2018-06-03T06:21:52.438Z,957.36
2018-06-03T06:22:52.436Z,957.35
2018-06-03T06:23:52.457Z,957.33
2018-06-03T06:24:52.433Z,957.34
2018-06-03T06:25:52.430Z,957.34
2018-06-03T06:26:52.428Z,957.36
2018-06-03T06:27:52.427Z,957.36
2018-06-03T06:28:52.426Z,957.34
2018-06-03T06:29:52.424Z,957.37
2018-06-03T06:30:52.422Z,957.34
2018-06-03T06:31:52.425Z,957.37
2018-06-03T06:32:52.476Z,957.39
2018-06-03T06:33:52.417Z,957.39
2018-06-03T06:34:52.415Z,957.39
2018-06-03T06:35:52.414Z,957.39
2018-06-03T06:36:52.414Z,957.43
2018-06-03T06:37:52.412Z,957.44
2018-06-03T06:38:52.426Z,957.47
2018-06-03T06:39:52.411Z,957.53
2018-06-03T06:40:52.412Z,957.53
2018-06-03T06:41:52.409Z,957.54
2018-06-03T06:42:52.407Z,957.48
2018-06-03T06:43:52.406Z,957.53
2018-06-03T06:44:52.409Z,957.52
2018-06-03T06:45:52.409Z,957.49
2018-06-03T06:46:52.413Z,957.46
2018-06-03T06:47:52.409Z,957.5
2018-06-03T06:48:52.410Z,957.52
2018-06-03T06:49:52.411Z,957.53
2018-06-03T06:50:52.433Z,957.52
2018-06-03T06:51:52.414Z,957.51
2018-06-03T06:52:52.416Z,957.51
2018-06-03T06:53:52.419Z,957.46
2018-06-03T06:54:52.425Z,957.55
2018-06-03T06:55:52.423Z,957.57
2018-06-03T06:56:52.425Z,957.54
2018-06-03T06:57:52.428Z,957.58
2018-06-03T06:58:52.432Z,957.58
2018-06-03T06:59:52.434Z,957.56
2018-06-03T07:00:52.437Z,957.63
2018-06-03T07:01:52.440Z,957.61
2018-06-03T07:02:52.446Z,957.64
2018-06-03T07:03:52.450Z,957.68
2018-06-03T07:04:52.488Z,957.67
2018-06-03T07:05:52.458Z,957.65
2018-06-03T07:06:52.460Z,957.61
2018-06-03T07:07:52.464Z,957.65
2018-06-03T07:08:52.469Z,957.62
2018-06-03T07:09:52.473Z,957.65
2018-06-03T07:10:52.479Z,957.67
2018-06-03T07:11:52.486Z,957.69
2018-06-03T07:12:52.488Z,957.69
2018-06-03T07:13:52.494Z,957.65
2018-06-03T07:14:52.498Z,957.66
2018-06-03T07:15:52.522Z,957.68
2018-06-03T07:16:52.508Z,957.7
2018-06-03T07:17:52.515Z,957.71
2018-06-03T07:18:52.521Z,957.72
2018-06-03T07:19:52.528Z,957.72
2018-06-03T07:20:52.534Z,957.71
2018-06-03T07:21:52.555Z,957.72
2018-06-03T07:22:52.545Z,957.74
2018-06-03T07:23:52.554Z,957.73
2018-06-03T07:24:52.558Z,957.72
2018-06-03T07:25:52.567Z,957.58
2018-06-03T07:26:52.573Z,957.56
2018-06-03T07:27:52.578Z,957.56
2018-06-03T07:28:52.584Z,957.56
2018-06-03T07:29:52.591Z,957.57
2018-06-03T07:30:52.604Z,957.54
2018-06-03T07:31:52.604Z,957.62
2018-06-03T07:32:52.608Z,957.79
2018-06-03T07:33:52.615Z,957.74
2018-06-03T07:34:52.621Z,957.71
2018-06-03T07:35:52.628Z,957.66
2018-06-03T07:36:52.631Z,957.67
2018-06-03T07:37:52.636Z,957.65
2018-06-03T07:38:52.644Z,957.64
2018-06-03T07:39:52.648Z,957.61
2018-06-03T07:40:52.655Z,957.58
2018-06-03T07:41:52.660Z,957.54
2018-06-03T07:42:52.667Z,957.58
2018-06-03T07:43:52.672Z,957.55
2018-06-03T07:44:52.681Z,957.54
2018-06-03T07:45:52.684Z,957.55
2018-06-03T07:46:52.690Z,957.6
2018-06-03T07:47:52.694Z,957.61
2018-06-03T07:48:52.700Z,957.63
2018-06-03T07:49:52.706Z,957.66
2018-06-03T07:50:52.711Z,957.6
2018-06-03T07:51:52.714Z,957.61
2018-06-03T07:52:52.719Z,957.63
2018-06-03T07:53:52.725Z,957.59
2018-06-03T07:54:52.726Z,957.68
2018-06-03T07:55:52.730Z,957.6
2018-06-03T07:56:52.732Z,957.58
2018-06-03T07:57:52.737Z,957.61
2018-06-03T07:58:52.738Z,957.58
2018-06-03T07:59:52.741Z,957.55
2018-06-03T08:00:52.745Z,957.59
2018-06-03T08:01:52.752Z,957.55
2018-06-03T08:02:52.750Z,957.53
2018-06-03T08:03:52.754Z,957.56
2018-06-03T08:04:52.757Z,957.52
2018-06-03T08:05:52.764Z,957.54
2018-06-03T08:06:52.761Z,957.53
2018-06-03T08:07:52.765Z,957.51
2018-06-03T08:08:52.767Z,957.52
2018-06-03T08:09:52.769Z,957.53
2018-06-03T08:10:52.772Z,957.52
2018-06-03T08:11:52.775Z,957.56
2018-06-03T08:12:52.776Z,957.6
2018-06-03T08:13:52.778Z,957.62
2018-06-03T08:14:52.780Z,957.6
2018-06-03T08:15:52.783Z,957.61
2018-06-03T08:16:52.783Z,957.61
2018-06-03T08:17:52.786Z,957.61
2018-06-03T08:18:52.788Z,957.65
2018-06-03T08:19:52.790Z,957.65
2018-06-03T08:20:52.791Z,957.58
2018-06-03T08:21:52.793Z,957.59
2018-06-03T08:22:52.862Z,957.59
2018-06-03T08:23:52.796Z,957.57
2018-06-03T08:24:52.801Z,957.62
2018-06-03T08:25:52.810Z,957.63
2018-06-03T08:26:52.803Z,957.67
2018-06-03T08:27:52.804Z,957.67
2018-06-03T08:28:52.805Z,957.7
2018-06-03T08:29:52.814Z,957.69
2018-06-03T08:30:52.809Z,957.72
2018-06-03T08:31:52.810Z,957.68
2018-06-03T08:32:52.811Z,957.7
2018-06-03T08:33:52.812Z,957.72
2018-06-03T08:34:52.812Z,957.75
2018-06-03T08:35:52.814Z,957.72
2018-06-03T08:36:52.816Z,957.73
2018-06-03T08:37:52.815Z,957.75
2018-06-03T08:38:52.816Z,957.74
2018-06-03T08:39:52.829Z,957.7
2018-06-03T08:40:52.820Z,957.7
2018-06-03T08:41:52.822Z,957.72
2018-06-03T08:42:52.829Z,957.7
2018-06-03T08:43:52.824Z,957.69
2018-06-03T08:44:52.827Z,957.7
2018-06-03T08:45:52.827Z,957.66
2018-06-03T08:46:52.826Z,957.68
2018-06-03T08:47:52.827Z,957.68
2018-06-03T08:48:52.828Z,957.7
2018-06-03T08:49:52.848Z,957.71
2018-06-03T08:50:52.830Z,957.69
2018-06-03T08:51:52.831Z,957.72
2018-06-03T08:52:52.833Z,957.74
2018-06-03T08:53:52.853Z,957.71
2018-06-03T08:54:52.843Z,957.74
2018-06-03T08:55:52.837Z,957.74
2018-06-03T08:56:52.837Z,957.75
2018-06-03T08:57:52.840Z,957.75
2018-06-03T08:58:52.841Z,957.72
2018-06-03T08:59:52.842Z,957.71
2018-06-03T09:00:52.843Z,957.7
2018-06-03T09:01:52.850Z,957.71
2018-06-03T09:02:52.847Z,957.72
2018-06-03T09:03:52.847Z,957.69
2018-06-03T09:04:52.848Z,957.75
2018-06-03T09:05:52.851Z,957.73
2018-06-03T09:06:52.859Z,957.73
2018-06-03T09:07:52.853Z,957.74
2018-06-03T09:08:52.855Z,957.71
2018-06-03T09:09:52.861Z,957.76
2018-06-03T09:10:52.866Z,957.76
2018-06-03T09:11:52.873Z,957.74
2018-06-03T09:12:52.860Z,957.76
2018-06-03T09:13:52.866Z,957.74
2018-06-03T09:14:52.863Z,957.77
2018-06-03T09:15:52.865Z,957.75
2018-06-03T09:16:52.866Z,957.71
2018-06-03T09:17:52.871Z,957.72
2018-06-03T09:18:52.886Z,957.73
2018-06-03T09:19:52.870Z,957.77
2018-06-03T09:20:52.877Z,957.78
2018-06-03T09:21:52.873Z,957.76
2018-06-03T09:22:52.876Z,957.73
2018-06-03T09:23:52.874Z,957.7
2018-06-03T09:24:52.884Z,957.74
2018-06-03T09:25:52.878Z,957.71
2018-06-03T09:26:52.879Z,957.69
2018-06-03T09:27:52.883Z,957.71
2018-06-03T09:28:52.884Z,957.68
2018-06-03T09:29:52.885Z,957.71
2018-06-03T09:30:52.889Z,957.66
2018-06-03T09:31:52.890Z,957.62
2018-06-03T09:32:52.890Z,957.62
2018-06-03T09:33:52.891Z,957.63
2018-06-03T09:34:52.895Z,957.62
2018-06-03T09:35:52.895Z,957.61
2018-06-03T09:36:52.897Z,957.65
2018-06-03T09:37:52.898Z,957.64
2018-06-03T09:38:52.900Z,957.64
2018-06-03T09:39:52.902Z,957.67
2018-06-03T09:40:52.902Z,957.69
2018-06-03T09:41:53.126Z,957.69
2018-06-03T09:42:52.905Z,957.65
2018-06-03T09:43:52.908Z,957.7
2018-06-03T09:44:52.910Z,957.7
2018-06-03T09:45:52.908Z,957.69
2018-06-03T09:46:52.912Z,957.67
2018-06-03T09:47:52.912Z,957.66
2018-06-03T09:48:52.914Z,957.64
2018-06-03T09:49:52.914Z,957.67
2018-06-03T09:50:52.917Z,957.63
2018-06-03T09:51:52.917Z,957.67
2018-06-03T09:52:52.920Z,957.71
2018-06-03T09:53:52.920Z,957.66
2018-06-03T09:54:52.922Z,957.61
2018-06-03T09:55:52.922Z,957.57
2018-06-03T09:56:52.926Z,957.61
2018-06-03T09:57:52.926Z,957.62
2018-06-03T09:58:52.925Z,957.61
2018-06-03T09:59:52.950Z,957.58
2018-06-03T10:00:52.929Z,957.55
2018-06-03T10:01:52.933Z,957.54
2018-06-03T10:02:52.933Z,957.57
2018-06-03T10:03:52.934Z,957.57
2018-06-03T10:04:52.952Z,957.56
2018-06-03T10:05:52.938Z,957.54
2018-06-03T10:06:52.939Z,957.55
2018-06-03T10:07:52.942Z,957.54
2018-06-03T10:08:52.944Z,957.51
2018-06-03T10:09:52.945Z,957.51
2018-06-03T10:10:52.972Z,957.53
2018-06-03T10:11:52.951Z,957.52
2018-06-03T10:12:52.954Z,957.5
2018-06-03T10:13:52.954Z,957.54
2018-06-03T10:14:52.956Z,957.52
2018-06-03T10:15:52.977Z,957.54
2018-06-03T10:16:52.962Z,957.56
2018-06-03T10:17:52.963Z,957.53
2018-06-03T10:18:52.965Z,957.56
2018-06-03T10:19:52.968Z,957.52
2018-06-03T10:20:52.970Z,957.54
2018-06-03T10:21:52.972Z,957.54
2018-06-03T10:22:52.974Z,957.55
2018-06-03T10:23:52.975Z,957.51
2018-06-03T10:24:52.976Z,957.55
2018-06-03T10:25:52.978Z,957.57
2018-06-03T10:26:52.997Z,957.53
2018-06-03T10:27:52.984Z,957.53
2018-06-03T10:28:52.984Z,957.54
2018-06-03T10:29:52.986Z,957.47
2018-06-03T10:30:52.999Z,957.51
2018-06-03T10:31:52.988Z,957.5
2018-06-03T10:32:52.994Z,957.45
2018-06-03T10:33:52.993Z,957.4
2018-06-03T10:34:52.994Z,957.43
2018-06-03T10:35:52.995Z,957.39
2018-06-03T10:36:53.000Z,957.39
2018-06-03T10:37:52.997Z,957.39
2018-06-03T10:38:53.017Z,957.39
2018-06-03T10:39:52.999Z,957.36
2018-06-03T10:40:53.002Z,957.37
2018-06-03T10:41:53.023Z,957.33
2018-06-03T10:42:53.012Z,957.36
2018-06-03T10:43:53.062Z,957.36
2018-06-03T10:44:53.008Z,957.35
2018-06-03T10:45:53.011Z,957.3
2018-06-03T10:46:53.012Z,957.34
2018-06-03T10:47:53.012Z,957.26
2018-06-03T10:48:53.014Z,957.28
2018-06-03T10:49:53.014Z,957.3
2018-06-03T10:50:53.018Z,957.27
2018-06-03T10:51:53.019Z,957.27
2018-06-03T10:52:53.020Z,957.24
2018-06-03T10:53:53.024Z,957.27
2018-06-03T10:54:53.022Z,957.2
2018-06-03T10:55:53.025Z,957.24
2018-06-03T10:56:53.029Z,957.23
2018-06-03T10:57:53.027Z,957.23
2018-06-03T10:58:53.029Z,957.25
2018-06-03T10:59:53.075Z,957.28
2018-06-03T11:00:53.033Z,957.31
2018-06-03T11:01:53.037Z,957.26
2018-06-03T11:02:53.040Z,957.27
2018-06-03T11:03:53.041Z,957.23
2018-06-03T11:04:53.038Z,957.21
2018-06-03T11:05:53.045Z,957.22
2018-06-03T11:06:53.046Z,957.25
2018-06-03T11:07:53.046Z,957.25
2018-06-03T11:08:53.045Z,957.2
2018-06-03T11:09:53.065Z,957.19
2018-06-03T11:10:53.049Z,957.18
2018-06-03T11:11:53.051Z,957.17
2018-06-03T11:12:53.053Z,957.16
2018-06-03T11:13:53.056Z,957.2
2018-06-03T11:14:53.057Z,957.19
2018-06-03T11:15:53.058Z,957.14
2018-06-03T11:16:53.059Z,957.16
2018-06-03T11:17:53.062Z,957.18
2018-06-03T11:18:53.071Z,957.16
2018-06-03T11:19:53.065Z,957.15
2018-06-03T11:20:53.068Z,957.16
2018-06-03T11:21:53.070Z,957.17
2018-06-03T11:22:53.070Z,957.15
2018-06-03T11:23:53.073Z,957.13
2018-06-03T11:24:53.075Z,957.16
2018-06-03T11:25:53.077Z,957.11
2018-06-03T11:26:53.080Z,957.1
2018-06-03T11:27:53.081Z,957.12
2018-06-03T11:28:53.082Z,957.14
2018-06-03T11:29:53.085Z,957.14
2018-06-03T11:30:53.088Z,957.1
2018-06-03T11:31:53.089Z,957.1
2018-06-03T11:32:53.091Z,957.1
2018-06-03T11:33:53.090Z,957.1
2018-06-03T11:34:53.093Z,957.08
2018-06-03T11:35:53.097Z,957.07
2018-06-03T11:36:53.098Z,957.05
2018-06-03T11:37:53.099Z,957.01
2018-06-03T11:38:53.100Z,957.06
2018-06-03T11:39:53.108Z,957.01
2018-06-03T11:40:53.106Z,957.06
2018-06-03T11:41:53.108Z,957.07
2018-06-03T11:42:53.109Z,957.02
2018-06-03T11:43:53.127Z,957.02
2018-06-03T11:44:53.111Z,956.99
2018-06-03T11:45:53.112Z,957.02
2018-06-03T11:46:53.131Z,956.96
2018-06-03T11:47:53.115Z,956.93
2018-06-03T11:48:53.117Z,956.91
2018-06-03T11:49:53.118Z,956.91
2018-06-03T11:50:53.120Z,956.87
2018-06-03T11:51:53.121Z,956.86
2018-06-03T11:52:53.122Z,956.83
2018-06-03T11:53:53.125Z,956.84
2018-06-03T11:54:53.124Z,956.85
2018-06-03T11:55:53.124Z,956.87
2018-06-03T11:56:53.127Z,956.84
2018-06-03T11:57:53.127Z,956.84
2018-06-03T11:58:53.131Z,956.82
2018-06-03T11:59:53.133Z,956.8
2018-06-03T12:00:53.131Z,956.79
2018-06-03T12:01:53.147Z,956.78
2018-06-03T12:02:53.137Z,956.77
2018-06-03T12:03:53.137Z,956.74
2018-06-03T12:04:53.138Z,956.76
2018-06-03T12:05:53.140Z,956.78
2018-06-03T12:06:53.143Z,956.8
2018-06-03T12:07:53.142Z,956.76
2018-06-03T12:08:53.145Z,956.81
2018-06-03T12:09:53.145Z,956.8
2018-06-03T12:10:53.148Z,956.78
2018-06-03T12:11:53.152Z,956.75
2018-06-03T12:12:53.154Z,956.77
2018-06-03T12:13:53.164Z,956.71
2018-06-03T12:14:53.152Z,956.7
2018-06-03T12:15:53.153Z,956.69
2018-06-03T12:16:53.155Z,956.65
2018-06-03T12:17:53.156Z,956.64
2018-06-03T12:18:53.157Z,956.64
2018-06-03T12:19:53.158Z,956.63
2018-06-03T12:20:53.160Z,956.67
2018-06-03T12:21:53.162Z,956.62
2018-06-03T12:22:53.169Z,956.61
2018-06-03T12:23:53.165Z,956.57
2018-06-03T12:24:53.166Z,956.6
2018-06-03T12:25:53.167Z,956.58
2018-06-03T12:26:53.186Z,956.64
2018-06-03T12:27:53.170Z,956.56
2018-06-03T12:28:53.171Z,956.59
2018-06-03T12:29:53.172Z,956.53
2018-06-03T12:30:53.174Z,956.46